createdAt,value
2018-01-14T00:11:24.961Z,98678.14
2018-01-14T00:32:01.157Z,98684.97
2018-01-14T00:52:38.716Z,98681.90
2018-01-14T01:13:12.938Z,98682.72
2018-01-14T01:33:47.891Z,98684.98
2018-01-14T01:54:25.011Z,98667.58
2018-01-14T02:15:00.646Z,98668.34
2018-01-14T02:35:33.856Z,98665.00
2018-01-14T02:56:08.676Z,98669.91
2018-01-14T03:16:40.870Z,98671.45
2018-01-14T03:37:18.293Z,98668.58
2018-01-14T03:57:50.734Z,98673.83
2018-01-14T04:18:21.802Z,98661.48
2018-01-14T04:39:00.184Z,98659.45
2018-01-14T04:59:34.413Z,98675.16
2018-01-14T05:20:11.657Z,98676.31
2018-01-14T05:40:50.540Z,98672.58
2018-01-14T06:01:26.116Z,98691.42
2018-01-14T06:22:02.924Z,98696.67
2018-01-14T06:42:36.353Z,98685.20
2018-01-14T07:03:09.781Z,98699.12
2018-01-14T07:23:46.279Z,98703.62
2018-01-14T07:44:20.324Z,98704.03
2018-01-14T08:05:06.653Z,98714.85
2018-01-14T08:25:45.007Z,98741.14
2018-01-14T09:04:19.438Z,98748.49
2018-01-14T09:24:51.071Z,98755.70
2018-01-14T09:45:26.917Z,98773.00
2018-01-14T10:06:05.613Z,98763.23
2018-01-14T10:11:51.098Z,98757.88
2018-01-14T10:14:19.457Z,98752.59
2018-01-14T10:16:47.757Z,98750.85
2018-01-14T10:19:16.032Z,98755.88
2018-01-14T10:21:44.323Z,98750.05
2018-01-14T10:24:12.597Z,98755.80
2018-01-14T10:26:40.940Z,98743.41
2018-01-14T10:29:10.001Z,98747.17
2018-01-14T10:31:38.310Z,98751.73
2018-01-14T10:34:07.338Z,98748.41
2018-01-14T10:36:35.620Z,98742.06
2018-01-14T10:39:04.633Z,98741.85
2018-01-14T10:41:33.011Z,98739.47
2018-01-14T10:44:01.308Z,98744.14
2018-01-14T10:46:29.569Z,98745.73
2018-01-14T10:48:57.837Z,98738.17
2018-01-14T10:51:26.179Z,98736.30
2018-01-14T10:53:54.531Z,98739.35
2018-01-14T10:56:22.802Z,98726.23
2018-01-14T10:58:51.081Z,98721.44
2018-01-14T11:01:24.790Z,98722.67
2018-01-14T11:03:53.101Z,98728.27
2018-01-14T11:06:21.409Z,98717.70
2018-01-14T11:08:49.665Z,98720.70
2018-01-14T11:11:17.958Z,98721.47
2018-01-14T11:13:46.257Z,98721.55
2018-01-14T11:16:15.369Z,98724.91
2018-01-14T11:18:43.652Z,98726.08
2018-01-14T11:21:11.911Z,98725.34
2018-01-14T11:23:40.203Z,98730.08
2018-01-14T11:26:08.472Z,98719.80
2018-01-14T11:28:38.963Z,98729.99
2018-01-14T11:31:07.983Z,98726.96
2018-01-14T11:42:30.103Z,98720.22
2018-01-14T11:45:03.495Z,98714.77
2018-01-14T11:47:32.044Z,98721.72
2018-01-14T11:50:00.330Z,98711.50
2018-01-14T11:52:28.618Z,98708.50
2018-01-14T11:54:56.948Z,98710.20
2018-01-14T11:57:25.991Z,98711.51
2018-01-14T11:59:54.569Z,98716.75
2018-01-14T12:02:23.287Z,98708.41
2018-01-14T12:04:51.607Z,98711.63
2018-01-14T12:07:19.900Z,98703.05
2018-01-14T12:09:48.171Z,98703.41
2018-01-14T12:12:16.446Z,98702.58
2018-01-14T12:14:44.741Z,98701.44
2018-01-14T12:17:13.016Z,98696.31
2018-01-14T12:19:41.274Z,98695.14
2018-01-14T12:22:09.555Z,98691.61
2018-01-14T12:24:37.826Z,98691.95
2018-01-14T12:27:06.974Z,98694.48
2018-01-14T12:29:35.256Z,98690.52
2018-01-14T12:32:03.536Z,98693.92
2018-01-14T12:34:40.318Z,98696.19
2018-01-14T12:37:08.585Z,98699.05
2018-01-14T12:39:36.891Z,98690.74
2018-01-14T12:42:05.151Z,98685.08
2018-01-14T12:44:33.418Z,98698.31
2018-01-14T12:47:01.704Z,98695.66
2018-01-14T12:49:30.623Z,98696.28
2018-01-14T12:51:59.705Z,98700.29
2018-01-14T12:54:27.969Z,98694.28
2018-01-14T12:56:56.230Z,98686.45
2018-01-14T12:59:24.526Z,98691.36
2018-01-14T13:01:52.812Z,98691.34
2018-01-14T13:04:21.110Z,98684.27
2018-01-14T13:06:50.306Z,98688.77
2018-01-14T13:09:19.655Z,98689.30
2018-01-14T13:11:47.939Z,98694.34
2018-01-14T13:14:16.211Z,98698.03
2018-01-14T13:16:44.523Z,98693.89
2018-01-14T13:19:12.845Z,98691.03
2018-01-14T13:21:41.116Z,98692.66
2018-01-14T13:24:09.433Z,98687.95
2018-01-14T13:26:37.707Z,98694.48
2018-01-14T13:29:05.979Z,98695.31
2018-01-14T13:31:34.290Z,98696.88
2018-01-14T13:34:02.604Z,98703.96
2018-01-14T13:36:31.667Z,98694.64
2018-01-14T13:38:59.957Z,98693.34
2018-01-14T13:41:28.278Z,98686.85
2018-01-14T13:43:56.567Z,98683.53
2018-01-14T13:46:24.836Z,98684.83
2018-01-14T13:48:53.178Z,98686.06
2018-01-14T13:51:21.425Z,98681.88
2018-01-14T13:53:50.471Z,98684.13
2018-01-14T13:56:18.759Z,98684.41
2018-01-14T13:58:47.062Z,98678.56
2018-01-14T14:01:15.384Z,98680.60
2018-01-14T14:03:43.627Z,98682.48
2018-01-14T14:06:11.924Z,98680.98
2018-01-14T14:08:40.226Z,98682.48
2018-01-14T14:11:09.262Z,98680.19
2018-01-14T14:13:37.581Z,98680.39
2018-01-14T14:16:05.859Z,98684.27
2018-01-14T14:18:34.173Z,98686.04
2018-01-14T14:21:02.468Z,98678.55
2018-01-14T14:23:30.738Z,98680.94
2018-01-14T14:25:59.046Z,98687.48
2018-01-14T14:28:27.317Z,98688.36
2018-01-14T14:30:55.592Z,98693.54
2018-01-14T14:33:23.904Z,98689.33
2018-01-14T14:35:52.168Z,98689.33
2018-01-14T14:38:20.462Z,98689.58
2018-01-14T14:40:48.754Z,98682.36
2018-01-14T14:43:17.784Z,98685.16
2018-01-14T14:45:46.091Z,98687.34
2018-01-14T14:48:14.358Z,98691.66
2018-01-14T14:50:42.646Z,98689.87
2018-01-14T14:53:10.958Z,98698.73
2018-01-14T14:55:40.010Z,98705.06
2018-01-14T14:58:08.292Z,98704.84
2018-01-14T15:00:36.551Z,98710.45
2018-01-14T15:03:04.844Z,98711.39
2018-01-14T15:05:33.131Z,98712.77
2018-01-14T15:08:01.405Z,98709.41
2018-01-14T15:10:29.696Z,98714.45
2018-01-14T15:12:57.970Z,98711.04
2018-01-14T15:15:26.240Z,98708.54
2018-01-14T15:17:54.519Z,98713.49
2018-01-14T15:20:22.805Z,98711.13
2018-01-14T15:22:51.111Z,98710.51
2018-01-14T15:25:20.227Z,98716.31
2018-01-14T15:27:49.316Z,98719.11
2018-01-14T15:30:18.371Z,98720.19
2018-01-14T15:32:46.854Z,98710.86
2018-01-14T15:35:15.247Z,98715.34
2018-01-14T15:37:43.596Z,98711.72
2018-01-14T15:40:11.966Z,98713.23
2018-01-14T15:42:40.343Z,98719.33
2018-01-14T15:45:10.596Z,98715.33
2018-01-14T15:47:39.053Z,98719.95
2018-01-14T15:50:08.555Z,98716.69
2018-01-14T15:52:36.980Z,98716.13
2018-01-14T15:55:06.278Z,98722.66
2018-01-14T15:57:34.681Z,98720.69
2018-01-14T16:00:03.955Z,98720.81
2018-01-14T16:02:33.226Z,98722.72
2018-01-14T16:05:06.253Z,98725.11
2018-01-14T16:07:34.613Z,98723.26
2018-01-14T16:10:04.851Z,98732.08
2018-01-14T16:12:35.657Z,98728.78
2018-01-14T16:15:08.165Z,98726.28
2018-01-14T16:17:36.399Z,98727.36
2018-01-14T16:20:06.656Z,98726.48
2018-01-14T16:22:38.713Z,98723.75
2018-01-14T16:25:07.090Z,98731.52
2018-01-14T16:27:38.550Z,98727.96
2018-01-14T16:30:07.873Z,98731.94
2018-01-14T16:32:39.933Z,98735.20
2018-01-14T16:35:11.973Z,98731.78
2018-01-14T16:37:41.290Z,98732.55
2018-01-14T16:40:10.589Z,98730.42
2018-01-14T16:42:39.890Z,98726.34
2018-01-14T16:45:08.351Z,98726.91
2018-01-14T16:47:36.644Z,98732.46
2018-01-14T16:50:05.020Z,98733.49
2018-01-14T16:52:33.696Z,98741.88
2018-01-14T16:55:02.085Z,98740.58
2018-01-14T16:57:31.407Z,98742.58
2018-01-14T16:59:59.715Z,98745.67
2018-01-14T17:02:28.777Z,98753.44
2018-01-14T17:04:57.417Z,98750.94
2018-01-14T17:07:29.821Z,98753.70
2018-01-14T17:09:59.155Z,98742.82
2018-01-14T17:12:28.425Z,98748.15
2018-01-14T17:14:57.769Z,98750.67
2018-01-14T17:17:31.968Z,98745.63
2018-01-14T17:20:00.322Z,98743.50
2018-01-14T17:22:29.622Z,98741.30
2018-01-14T17:24:58.020Z,98734.34
2018-01-14T17:27:27.047Z,98737.29
2018-01-14T17:29:56.758Z,98737.91
2018-01-14T17:32:25.057Z,98735.17
2018-01-14T17:34:54.297Z,98731.78
2018-01-14T17:37:22.762Z,98731.11
2018-01-14T17:39:51.978Z,98731.58
2018-01-14T17:42:21.259Z,98734.34
2018-01-14T17:44:49.733Z,98739.34
2018-01-14T17:47:22.948Z,98744.02
2018-01-14T17:49:51.333Z,98744.34
2018-01-14T17:52:19.726Z,98746.38
2018-01-14T17:54:48.113Z,98748.68
2018-01-14T17:57:16.535Z,98750.91
2018-01-14T17:59:44.840Z,98746.23
2018-01-14T18:02:13.330Z,98751.30
2018-01-14T18:04:41.618Z,98747.83
2018-01-14T18:07:10.002Z,98742.38
2018-01-14T18:09:38.393Z,98742.27
2018-01-14T18:12:11.376Z,98737.33
2018-01-14T18:14:39.796Z,98736.38
2018-01-14T18:20:10.013Z,98735.41
2018-01-14T18:22:38.358Z,98739.41
2018-01-14T18:25:07.919Z,98741.17
2018-01-14T18:27:41.934Z,98743.56
2018-01-14T18:30:14.043Z,98741.38
2018-01-14T18:32:42.373Z,98750.97
2018-01-14T18:35:10.884Z,98746.47
2018-01-14T18:37:41.884Z,98746.11
2018-01-14T18:40:12.468Z,98751.23
2018-01-14T18:42:45.374Z,98760.09
2018-01-14T18:45:14.853Z,98756.20
2018-01-14T18:47:45.843Z,98756.58
2018-01-14T18:50:14.304Z,98754.23
2018-01-14T18:52:42.886Z,98748.38
2018-01-14T18:55:14.434Z,98752.58
2018-01-14T18:57:45.144Z,98749.02
2018-01-14T19:00:13.547Z,98746.77
2018-01-14T19:02:43.781Z,98748.34
2018-01-14T19:05:12.358Z,98740.67
2018-01-14T19:07:40.649Z,98746.86
2018-01-14T19:10:08.993Z,98746.64
2018-01-14T19:12:38.285Z,98748.98
2018-01-14T19:15:07.535Z,98755.25
2018-01-14T19:17:35.954Z,98759.31
2018-01-14T19:20:07.361Z,98754.11
2018-01-14T19:22:36.110Z,98753.28
2018-01-14T19:25:07.072Z,98756.40
2018-01-14T19:27:36.507Z,98750.92
2018-01-14T19:30:04.911Z,98751.66
2018-01-14T19:32:33.268Z,98754.83
2018-01-14T19:35:01.632Z,98752.80
2018-01-14T19:37:30.038Z,98754.99
2018-01-14T19:39:58.438Z,98755.41
2018-01-14T19:42:26.824Z,98761.30
2018-01-14T19:44:57.372Z,98767.52
2018-01-14T19:47:26.633Z,98758.64
2018-01-14T19:49:55.400Z,98767.77
2018-01-14T19:52:23.689Z,98760.94
2018-01-14T19:54:52.059Z,98760.52
2018-01-14T19:57:21.460Z,98763.17
2018-01-14T19:59:49.736Z,98764.28
2018-01-14T20:02:18.377Z,98762.39
2018-01-14T20:04:47.766Z,98765.77
2018-01-14T20:07:16.553Z,98762.28
2018-01-14T20:09:45.048Z,98763.38
2018-01-14T20:12:13.583Z,98765.94
2018-01-14T20:14:42.192Z,98774.48
2018-01-14T20:17:12.596Z,98769.41
2018-01-14T20:19:41.242Z,98768.95
2018-01-14T20:22:10.771Z,98761.67
2018-01-14T20:24:41.564Z,98764.58
2018-01-14T20:27:10.060Z,98774.21
2018-01-14T20:29:42.779Z,98771.77
2018-01-14T20:32:11.628Z,98768.95
2018-01-14T20:34:40.946Z,98766.67
2018-01-14T20:37:11.192Z,98765.01
2018-01-14T20:39:48.142Z,98768.03
2018-01-14T20:42:17.595Z,98777.33
2018-01-14T20:44:51.776Z,98774.98
2018-01-14T20:47:22.947Z,98782.86
2018-01-14T20:49:51.463Z,98787.61
2018-01-14T20:52:19.922Z,98785.98
2018-01-14T20:54:50.385Z,98785.09
2018-01-14T20:57:29.464Z,98785.03
2018-01-14T20:59:59.146Z,98780.91
2018-01-14T21:02:28.465Z,98780.83
2018-01-14T21:04:56.836Z,98777.47
2018-01-14T21:07:26.240Z,98775.59
2018-01-14T21:09:54.568Z,98767.49
2018-01-14T21:12:23.877Z,98768.52
2018-01-14T21:14:53.057Z,98760.00
2018-01-14T21:17:22.407Z,98759.43
2018-01-14T21:19:50.730Z,98754.45
2018-01-14T21:22:21.063Z,98758.94
2018-01-14T21:24:49.458Z,98756.90
2018-01-14T21:27:17.746Z,98765.72
2018-01-14T21:29:47.057Z,98764.03
2018-01-14T21:32:18.518Z,98758.02
2018-01-14T21:34:46.877Z,98753.23
2018-01-14T21:37:15.246Z,98751.02
2018-01-14T21:39:43.640Z,98748.72
2018-01-14T21:42:11.989Z,98748.70
2018-01-14T21:44:41.304Z,98755.56
2018-01-14T21:47:09.685Z,98744.39
2018-01-14T21:49:38.122Z,98742.64
2018-01-14T21:52:06.463Z,98743.04
2018-01-14T21:54:35.752Z,98735.03
2018-01-14T21:57:04.214Z,98739.12
2018-01-14T21:59:33.460Z,98738.30
2018-01-14T22:02:06.120Z,98733.03
2018-01-14T22:04:35.464Z,98740.01
2018-01-14T22:07:04.699Z,98737.84
2018-01-14T22:09:36.791Z,98736.78
2018-01-14T22:12:06.089Z,98737.31
2018-01-14T22:14:34.495Z,98728.81
2018-01-14T22:17:02.887Z,98728.96
2018-01-14T22:19:35.340Z,98728.55
2018-01-14T22:22:03.629Z,98731.98
2018-01-14T22:24:36.830Z,98734.94
2018-01-14T22:27:05.298Z,98737.23
2018-01-14T22:29:33.644Z,98732.60
2018-01-14T22:32:02.024Z,98727.88
2018-01-14T22:34:30.414Z,98724.16
2018-01-14T22:36:58.795Z,98725.82
2018-01-14T22:39:27.191Z,98728.19
2018-01-14T22:41:55.527Z,98727.24
2018-01-14T22:44:25.766Z,98722.90
2018-01-14T22:46:54.173Z,98729.55
2018-01-14T22:49:22.551Z,98730.13
2018-01-14T22:51:50.908Z,98734.41
2018-01-14T22:54:20.249Z,98729.76
2018-01-14T22:56:48.601Z,98732.67
2018-01-14T22:59:17.024Z,98723.94
2018-01-14T23:01:46.288Z,98729.23
2018-01-14T23:04:14.658Z,98730.42
2018-01-14T23:06:43.062Z,98727.36
2018-01-14T23:09:12.333Z,98730.98
2018-01-14T23:11:40.714Z,98731.91
2018-01-14T23:14:09.114Z,98731.14
2018-01-14T23:16:37.477Z,98729.71
2018-01-14T23:19:06.807Z,98725.17
2018-01-14T23:21:37.103Z,98729.22
2018-01-14T23:24:05.367Z,98727.41
2018-01-14T23:26:35.674Z,98730.56
2018-01-14T23:29:06.791Z,98725.88
2018-01-14T23:31:38.216Z,98713.60
2018-01-14T23:34:08.730Z,98703.07
2018-01-14T23:36:37.111Z,98701.66
2018-01-14T23:39:05.518Z,98703.82
2018-01-14T23:41:35.771Z,98706.20
2018-01-14T23:44:05.038Z,98702.27
2018-01-14T23:46:33.381Z,98699.06
2018-01-14T23:49:01.838Z,98701.89
2018-01-14T23:51:32.335Z,98701.97
2018-01-14T23:54:02.004Z,98707.07
2018-01-14T23:56:30.276Z,98701.82
2018-01-14T23:58:58.654Z,98699.80
